Terminal Aerodrome Forecast
Issued by NWS Bismarck, ND

Home | Current Version | Previous Version | Text Only | Print | Product List | Glossary Off
Versions: 1 2 3 4 5 6 7 8 9 10 11 12 13 14 15 16 17 18 19

289
FTUS43 KBIS 050534
TAFBIS
TAF
KBIS 050534Z 0506/0606 24004KT P6SM OVC060
     FM051000 31004KT P6SM BKN015
     FM051100 33004KT P6SM VCSH OVC015
     FM051400 32006KT P6SM BKN040
     FM051800 31010KT P6SM SCT120
     FM060200 25004KT P6SM SCT250=

USA.gov is the U.S. government's official web portal to all federal, state and local government web resources and services.